createdAt,value
2018-01-04T00:00:24.163Z,6.20
2018-01-04T00:02:51.729Z,6.20
2018-01-04T00:05:19.321Z,6.20
2018-01-04T00:07:46.885Z,6.30
2018-01-04T00:10:14.467Z,6.30
2018-01-04T00:12:42.235Z,6.40
2018-01-04T00:15:09.828Z,6.40
2018-01-04T00:17:37.409Z,6.40
2018-01-04T00:20:05.234Z,6.40
2018-01-04T00:22:34.084Z,6.50
2018-01-04T00:25:01.647Z,6.40
2018-01-04T00:27:29.464Z,6.50
2018-01-04T00:29:57.051Z,6.50
2018-01-04T00:32:25.384Z,6.50
2018-01-04T00:34:54.078Z,6.60
2018-01-04T00:37:22.448Z,6.60
2018-01-04T00:39:50.027Z,6.50
2018-01-04T00:42:19.445Z,6.60
2018-01-04T00:44:47.013Z,6.50
2018-01-04T00:47:14.804Z,6.50
2018-01-04T00:49:42.417Z,6.50
2018-01-04T00:52:10.746Z,6.50
2018-01-04T00:54:38.317Z,6.50
2018-01-04T00:57:06.093Z,6.50
2018-01-04T00:59:33.675Z,6.50
2018-01-04T01:02:01.239Z,6.50
2018-01-04T01:04:30.109Z,6.30
2018-01-04T01:06:58.471Z,6.30
2018-01-04T01:09:26.665Z,6.30
2018-01-04T01:11:54.831Z,6.20
2018-01-04T01:14:22.397Z,6.20
2018-01-04T01:16:49.980Z,6.20
2018-01-04T01:19:19.223Z,6.10
2018-01-04T01:21:46.793Z,6.10
2018-01-04T01:24:14.553Z,6.10
2018-01-04T01:26:42.984Z,6.00
2018-01-04T01:29:10.556Z,6.00
2018-01-04T01:31:38.143Z,6.00
2018-01-04T01:34:05.774Z,6.00
2018-01-04T01:36:33.696Z,6.00
2018-01-04T01:39:01.261Z,6.00
2018-01-04T01:41:28.987Z,6.00
2018-01-04T01:43:56.546Z,6.00
2018-01-04T01:46:24.140Z,6.00
2018-01-04T01:49:04.296Z,6.10
2018-01-04T01:51:31.867Z,6.10
2018-01-04T01:53:59.447Z,6.20
2018-01-04T01:56:27.672Z,6.20
2018-01-04T01:58:55.263Z,6.20
2018-01-04T02:01:22.826Z,6.20
2018-01-04T02:03:50.574Z,6.20
2018-01-04T02:06:18.168Z,6.30
2018-01-04T02:08:45.745Z,6.30
2018-01-04T02:11:14.183Z,6.30
2018-01-04T02:13:41.764Z,6.30
2018-01-04T02:16:24.366Z,6.30
2018-01-04T02:19:03.808Z,6.30
2018-01-04T02:21:45.537Z,6.40
2018-01-04T02:24:26.930Z,6.40
2018-01-04T02:27:06.640Z,6.40
2018-01-04T02:29:45.973Z,6.40
2018-01-04T02:32:25.435Z,6.40
2018-01-04T02:35:06.416Z,6.40
2018-01-04T02:37:45.974Z,6.40
2018-01-04T02:40:25.330Z,6.40
2018-01-04T02:43:04.966Z,6.40
2018-01-04T02:45:53.332Z,6.40
2018-01-04T02:48:21.934Z,6.40
2018-01-04T02:50:50.311Z,6.40
2018-01-04T02:53:17.898Z,6.40
2018-01-04T02:55:46.380Z,6.40
2018-01-04T02:58:13.940Z,6.40
2018-01-04T03:00:41.534Z,6.40
2018-01-04T03:03:09.704Z,6.40
2018-01-04T03:05:37.314Z,6.40
2018-01-04T03:08:04.895Z,6.40
2018-01-04T03:10:33.182Z,6.40
2018-01-04T03:13:01.513Z,6.40
2018-01-04T03:15:29.956Z,6.40
2018-01-04T03:17:57.560Z,6.40
2018-01-04T03:20:25.968Z,6.40
2018-01-04T03:22:59.628Z,6.40
2018-01-04T03:25:32.924Z,6.40
2018-01-04T03:28:06.105Z,6.40
2018-01-04T03:30:39.266Z,6.40
2018-01-04T03:33:13.479Z,6.40
2018-01-04T03:35:47.448Z,6.40
2018-01-04T03:38:23.469Z,6.40
2018-01-04T03:40:56.624Z,6.40
2018-01-04T03:43:30.745Z,6.40
2018-01-04T03:46:03.865Z,6.40
2018-01-04T03:48:32.376Z,6.40
2018-01-04T03:51:05.712Z,6.40
2018-01-04T03:53:38.981Z,6.40
2018-01-04T03:56:12.161Z,6.40
2018-01-04T03:58:45.640Z,6.40
2018-01-04T04:01:18.817Z,6.40
2018-01-04T04:03:46.526Z,6.40
2018-01-04T04:06:19.742Z,6.40
2018-01-04T04:08:47.926Z,6.40
2018-01-04T04:11:15.551Z,6.40
2018-01-04T04:13:43.895Z,6.40
2018-01-04T04:16:11.511Z,6.40
2018-01-04T04:18:39.083Z,6.50
2018-01-04T04:21:06.657Z,6.50
2018-01-04T04:23:35.360Z,6.50
2018-01-04T04:26:03.976Z,6.50
2018-01-04T04:28:31.559Z,6.50
2018-01-04T04:30:59.165Z,6.50
2018-01-04T04:33:26.760Z,6.50
2018-01-04T04:35:54.351Z,6.50
2018-01-04T04:38:22.091Z,6.50
2018-01-04T04:40:56.050Z,6.40
2018-01-04T04:43:25.059Z,6.30
2018-01-04T04:45:52.652Z,6.30
2018-01-04T04:48:20.221Z,6.20
2018-01-04T04:50:48.227Z,6.10
2018-01-04T04:53:15.838Z,6.00
2018-01-04T04:55:43.489Z,6.00
2018-01-04T04:58:11.212Z,6.00
2018-01-04T05:00:38.773Z,5.90
2018-01-04T05:03:06.338Z,5.90
2018-01-04T05:05:33.935Z,6.00
2018-01-04T05:08:01.520Z,6.00
2018-01-04T05:10:29.332Z,6.00
2018-01-04T05:12:57.602Z,6.00
2018-01-04T05:15:25.571Z,6.00
2018-01-04T05:17:53.144Z,5.90
2018-01-04T05:20:21.807Z,5.70
2018-01-04T05:22:49.384Z,5.70
2018-01-04T05:25:17.765Z,5.80
2018-01-04T05:27:46.469Z,5.80
2018-01-04T05:30:14.056Z,5.80
2018-01-04T05:32:41.645Z,5.80
2018-01-04T05:35:09.801Z,5.70
2018-01-04T05:37:37.411Z,5.70
2018-01-04T05:40:05.740Z,5.60
2018-01-04T05:42:34.688Z,5.60
2018-01-04T05:45:03.037Z,5.60
2018-01-04T05:47:30.656Z,5.50
2018-01-04T05:49:58.373Z,5.50
2018-01-04T05:52:25.965Z,5.50
2018-01-04T05:54:53.563Z,5.50
2018-01-04T05:57:21.953Z,5.60
2018-01-04T05:59:49.552Z,5.60
2018-01-04T06:02:17.968Z,5.60
2018-01-04T06:04:45.705Z,5.60
2018-01-04T06:07:14.063Z,5.40
2018-01-04T06:09:41.643Z,5.40
2018-01-04T06:12:10.392Z,5.40
2018-01-04T06:14:37.981Z,5.40
2018-01-04T06:17:06.416Z,5.40
2018-01-04T06:19:34.024Z,5.40
2018-01-04T06:22:01.615Z,5.40
2018-01-04T06:24:29.409Z,5.40
2018-01-04T06:26:57.907Z,5.40
2018-01-04T06:29:25.852Z,5.40
2018-01-04T06:31:53.437Z,5.50
2018-01-04T06:34:21.215Z,5.40
2018-01-04T06:36:48.803Z,5.30
2018-01-04T06:39:16.367Z,5.30
2018-01-04T06:41:44.167Z,5.30
2018-01-04T06:44:11.740Z,5.30
2018-01-04T06:46:40.075Z,5.30
2018-01-04T06:49:08.222Z,5.30
2018-01-04T06:51:36.627Z,5.30
2018-01-04T06:54:04.215Z,5.30
2018-01-04T06:56:32.134Z,5.40
2018-01-04T06:58:59.722Z,5.50
2018-01-04T07:01:27.301Z,5.40
2018-01-04T07:03:55.177Z,5.40
2018-01-04T07:06:22.779Z,5.40
2018-01-04T07:08:50.431Z,5.40
2018-01-04T07:11:18.063Z,5.40
2018-01-04T07:13:46.153Z,5.30
2018-01-04T07:16:13.730Z,5.30
2018-01-04T07:18:42.216Z,5.30
2018-01-04T07:21:09.838Z,5.40
2018-01-04T07:23:37.507Z,5.40
2018-01-04T07:26:05.344Z,5.40
2018-01-04T07:28:32.928Z,5.50
2018-01-04T07:31:01.742Z,5.50
2018-01-04T07:33:29.483Z,5.60
2018-01-04T07:35:57.058Z,5.60
2018-01-04T07:38:24.731Z,5.50
2018-01-04T07:40:52.328Z,5.60
2018-01-04T07:43:20.711Z,5.50
2018-01-04T07:45:49.065Z,5.50
2018-01-04T07:48:16.835Z,5.40
2018-01-04T07:50:44.484Z,5.50
2018-01-04T07:53:12.890Z,5.50
2018-01-04T07:55:40.530Z,5.50
2018-01-04T07:58:08.142Z,5.50
2018-01-04T08:00:35.759Z,5.50
2018-01-04T08:03:03.507Z,5.50
2018-01-04T08:05:31.106Z,5.50
2018-01-04T08:07:59.492Z,5.50
2018-01-04T08:10:27.245Z,5.50
2018-01-04T08:12:55.608Z,5.40
2018-01-04T08:15:23.351Z,5.50
2018-01-04T08:17:51.125Z,5.40
2018-01-04T08:20:18.818Z,5.50
2018-01-04T08:22:47.903Z,5.40
2018-01-04T08:25:15.559Z,5.40
2018-01-04T08:27:43.144Z,5.40
2018-01-04T08:30:11.505Z,5.50
2018-01-04T08:32:39.593Z,5.50
2018-01-04T08:35:07.271Z,5.60
2018-01-04T08:37:34.982Z,5.60
2018-01-04T08:40:02.780Z,5.50
2018-01-04T08:42:30.408Z,5.60
2018-01-04T08:44:58.016Z,5.60
2018-01-04T08:47:27.235Z,5.60
2018-01-04T08:49:54.827Z,5.50
2018-01-04T08:52:22.584Z,5.50
2018-01-04T08:54:50.718Z,5.60
2018-01-04T08:57:19.061Z,5.60
2018-01-04T08:59:46.658Z,5.60
2018-01-04T09:02:14.582Z,5.60
2018-01-04T09:04:42.172Z,5.60
2018-01-04T09:07:09.746Z,5.60
2018-01-04T09:09:37.356Z,5.60
2018-01-04T09:12:04.929Z,5.60
2018-01-04T09:14:32.519Z,5.70
2018-01-04T09:17:00.498Z,5.60
2018-01-04T09:19:28.824Z,5.60
2018-01-04T09:21:56.394Z,5.60
2018-01-04T09:24:24.288Z,5.70
2018-01-04T09:26:52.472Z,5.70
2018-01-04T09:29:20.543Z,5.70
2018-01-04T09:31:49.696Z,5.70
2018-01-04T09:34:17.383Z,5.80
2018-01-04T09:36:44.966Z,5.80
2018-01-04T09:39:12.596Z,5.80
2018-01-04T09:41:40.161Z,5.80
2018-01-04T09:44:07.859Z,5.80
2018-01-04T09:46:36.237Z,5.90
2018-01-04T09:49:03.843Z,5.80
2018-01-04T09:51:31.401Z,5.90
2018-01-04T09:53:59.214Z,5.90
2018-01-04T09:56:27.572Z,6.00
2018-01-04T09:58:55.741Z,6.00
2018-01-04T10:01:24.100Z,6.10
2018-01-04T10:03:52.450Z,6.10
2018-01-04T10:06:20.152Z,6.10
2018-01-04T10:08:48.612Z,6.10
2018-01-04T10:11:16.213Z,6.10
2018-01-04T10:13:43.806Z,6.10
2018-01-04T10:16:12.218Z,6.10
2018-01-04T10:18:40.082Z,6.10
2018-01-04T10:21:07.684Z,6.20
2018-01-04T10:23:35.471Z,6.20
2018-01-04T10:26:03.033Z,6.20
2018-01-04T10:28:31.399Z,6.20
2018-01-04T10:30:59.868Z,6.20
2018-01-04T10:33:27.458Z,6.20
2018-01-04T10:35:55.586Z,6.20
2018-01-04T10:38:23.187Z,6.20
2018-01-04T10:40:50.766Z,6.20
2018-01-04T10:43:19.190Z,6.30
2018-01-04T10:45:47.096Z,6.30
2018-01-04T10:48:15.538Z,6.20
2018-01-04T10:50:43.104Z,6.20
2018-01-04T10:53:11.332Z,6.30
2018-01-04T10:55:39.938Z,6.20
2018-01-04T10:58:07.501Z,6.20
2018-01-04T11:00:35.335Z,6.20
2018-01-04T11:03:04.052Z,6.20
2018-01-04T11:05:31.626Z,6.20
2018-01-04T11:07:59.228Z,6.20
2018-01-04T11:10:26.851Z,6.20
2018-01-04T11:12:54.439Z,6.20
2018-01-04T11:15:22.475Z,6.10
2018-01-04T11:17:50.062Z,6.10
2018-01-04T11:20:17.789Z,6.10
2018-01-04T11:22:46.187Z,6.10
2018-01-04T11:25:13.749Z,6.10
2018-01-04T11:27:41.311Z,6.00
2018-01-04T11:30:09.305Z,6.00
2018-01-04T11:32:37.123Z,6.00
2018-01-04T11:35:05.533Z,6.10
2018-01-04T11:37:33.423Z,6.00
2018-01-04T11:40:01.764Z,6.00
2018-01-04T11:42:29.342Z,6.00
2018-01-04T11:44:57.126Z,6.00
2018-01-04T11:47:24.708Z,6.00
2018-01-04T11:49:52.271Z,6.00
2018-01-04T11:52:20.656Z,5.90
2018-01-04T11:54:49.107Z,6.00
2018-01-04T11:57:16.772Z,5.90
2018-01-04T11:59:45.023Z,5.90
2018-01-04T12:02:12.588Z,5.80
2018-01-04T12:04:40.436Z,5.80
2018-01-04T12:07:09.129Z,5.80
2018-01-04T12:09:36.901Z,5.80
2018-01-04T12:12:04.766Z,5.70
2018-01-04T12:14:32.860Z,5.70
2018-01-04T12:17:00.516Z,5.60
2018-01-04T12:19:28.106Z,5.70
2018-01-04T12:21:57.807Z,5.70
2018-01-04T12:24:26.890Z,5.70
2018-01-04T12:26:54.533Z,5.70
2018-01-04T12:29:22.275Z,5.80
2018-01-04T12:31:49.836Z,5.70
2018-01-04T12:34:18.298Z,5.80
2018-01-04T12:36:46.687Z,5.80
2018-01-04T12:39:15.688Z,5.80
2018-01-04T12:41:43.255Z,5.70
2018-01-04T12:44:12.725Z,5.70
2018-01-04T12:46:41.172Z,5.70
2018-01-04T12:49:08.750Z,5.70
2018-01-04T12:51:36.383Z,5.80
2018-01-04T12:54:03.978Z,5.80
2018-01-04T12:56:31.566Z,5.80
2018-01-04T12:59:00.394Z,5.80
2018-01-04T13:01:27.977Z,5.80
2018-01-04T13:03:55.577Z,5.80
2018-01-04T13:06:23.891Z,5.70
2018-01-04T13:08:51.527Z,5.70
2018-01-04T13:11:19.243Z,5.70
2018-01-04T13:13:46.844Z,5.80
2018-01-04T13:16:15.046Z,5.80
2018-01-04T13:18:43.567Z,5.90
2018-01-04T13:21:11.544Z,5.90
2018-01-04T13:23:48.352Z,5.90
2018-01-04T13:26:16.438Z,6.00
2018-01-04T13:28:45.016Z,5.90
2018-01-04T13:31:12.805Z,6.00
2018-01-04T13:33:40.596Z,6.00
2018-01-04T13:36:08.183Z,6.00
2018-01-04T13:38:36.316Z,6.00
2018-01-04T13:41:05.583Z,6.00
2018-01-04T13:43:33.208Z,6.00
2018-01-04T13:46:01.665Z,6.10
2018-01-04T13:48:29.269Z,6.10
2018-01-04T13:50:57.619Z,6.10
2018-01-04T13:53:26.033Z,6.10
2018-01-04T13:55:53.984Z,6.10
2018-01-04T13:58:22.723Z,6.10
2018-01-04T14:00:50.309Z,6.10
2018-01-04T14:03:18.205Z,6.10
2018-01-04T14:05:46.941Z,6.10
2018-01-04T14:08:15.637Z,6.10
2018-01-04T14:10:43.441Z,6.10
2018-01-04T14:13:11.776Z,6.20
2018-01-04T14:15:39.344Z,6.20
2018-01-04T14:18:07.840Z,6.20
2018-01-04T14:20:35.417Z,6.20
2018-01-04T14:23:03.060Z,6.20
2018-01-04T14:25:30.953Z,6.20
2018-01-04T14:27:59.283Z,6.20
2018-01-04T14:30:27.268Z,6.20
2018-01-04T14:32:56.090Z,6.20
2018-01-04T14:35:25.500Z,6.20
2018-01-04T14:37:53.303Z,6.20
2018-01-04T14:40:21.454Z,6.20
2018-01-04T14:42:50.282Z,6.20
2018-01-04T14:45:18.471Z,6.10
2018-01-04T14:47:48.084Z,6.20
2018-01-04T14:50:16.986Z,6.20
2018-01-04T14:52:44.575Z,6.20
2018-01-04T14:55:13.452Z,6.20
2018-01-04T14:57:41.016Z,6.20
2018-01-04T15:00:08.946Z,6.20
2018-01-04T15:02:36.881Z,6.30
2018-01-04T15:05:05.217Z,6.30
2018-01-04T15:07:32.776Z,6.20
2018-01-04T15:10:00.709Z,6.30
2018-01-04T15:15:50.251Z,6.30
2018-01-04T15:18:17.816Z,6.30
2018-01-04T15:20:45.529Z,6.30
2018-01-04T15:23:14.030Z,6.20
2018-01-04T15:25:41.611Z,6.30
2018-01-04T15:28:09.280Z,6.30
2018-01-04T15:30:36.853Z,6.30
2018-01-04T15:33:04.408Z,6.30
2018-01-04T15:35:31.995Z,6.30
2018-01-04T15:38:02.108Z,6.30
2018-01-04T15:40:31.592Z,6.30
2018-01-04T15:42:59.155Z,6.20
2018-01-04T15:45:27.126Z,6.30
2018-01-04T15:47:55.497Z,6.30
2018-01-04T15:50:23.034Z,6.30
2018-01-04T15:52:51.032Z,6.30
2018-01-04T15:55:18.584Z,6.30
2018-01-04T15:57:47.246Z,6.30
2018-01-04T16:00:14.886Z,6.30
2018-01-04T16:02:43.139Z,6.30
2018-01-04T16:05:11.512Z,6.30
2018-01-04T16:07:39.437Z,6.30
2018-01-04T16:10:07.183Z,6.30
2018-01-04T16:12:34.759Z,6.30
2018-01-04T16:15:02.618Z,6.40
2018-01-04T16:17:31.061Z,6.40
2018-01-04T16:19:59.634Z,6.40
2018-01-04T16:22:27.647Z,6.40
2018-01-04T16:24:55.221Z,6.40
2018-01-04T16:27:22.757Z,6.40
2018-01-04T16:29:52.467Z,6.40
2018-01-04T16:32:20.780Z,6.40
2018-01-04T16:34:48.368Z,6.40
2018-01-04T16:37:15.964Z,6.50
2018-01-04T16:39:43.600Z,6.50
2018-01-04T16:42:12.096Z,6.50
2018-01-04T16:44:39.869Z,6.50
2018-01-04T16:47:08.183Z,6.40
2018-01-04T16:49:35.842Z,6.40
2018-01-04T16:52:04.591Z,6.40
2018-01-04T16:54:33.241Z,6.40
2018-01-04T16:57:00.836Z,6.40
2018-01-04T16:59:29.385Z,6.50
2018-01-04T17:01:57.054Z,6.40
2018-01-04T17:04:24.609Z,6.50
2018-01-04T17:06:52.462Z,6.50
2018-01-04T17:09:20.025Z,6.50
2018-01-04T17:11:47.588Z,6.50
2018-01-04T17:14:15.979Z,6.60
2018-01-04T17:16:43.535Z,6.60
2018-01-04T17:19:12.893Z,6.60
2018-01-04T17:21:40.458Z,6.60
2018-01-04T17:24:08.010Z,6.60
2018-01-04T17:26:36.347Z,6.70
2018-01-04T17:29:04.865Z,6.70
2018-01-04T17:31:33.954Z,6.70
2018-01-04T17:34:02.319Z,6.70
2018-01-04T17:36:29.993Z,6.70
2018-01-04T17:38:58.346Z,6.80
2018-01-04T17:41:26.181Z,6.80
2018-01-04T17:43:55.268Z,6.80
2018-01-04T17:46:23.172Z,6.80
2018-01-04T17:48:50.794Z,6.80
2018-01-04T17:51:18.968Z,6.80
2018-01-04T17:53:46.502Z,6.80
2018-01-04T17:56:15.417Z,6.90
2018-01-04T17:58:43.195Z,6.80
2018-01-04T18:01:10.740Z,6.80
2018-01-04T18:03:39.052Z,6.90
2018-01-04T18:06:08.358Z,6.90
2018-01-04T18:08:37.350Z,6.90
2018-01-04T18:11:05.845Z,6.90
2018-01-04T18:13:33.927Z,6.90
2018-01-04T18:16:01.830Z,7.00
2018-01-04T18:18:29.708Z,7.00
2018-01-04T18:20:58.235Z,7.00
2018-01-04T18:23:27.326Z,7.10
2018-01-04T18:25:54.967Z,7.10
2018-01-04T18:28:23.475Z,7.20
2018-01-04T18:30:51.029Z,7.20
2018-01-04T18:33:18.666Z,7.20
2018-01-04T18:35:47.558Z,7.20
2018-01-04T18:38:15.138Z,7.30
2018-01-04T18:40:42.678Z,7.20
2018-01-04T18:43:10.441Z,7.30
2018-01-04T18:45:38.416Z,7.30
2018-01-04T18:48:06.017Z,7.30
2018-01-04T18:50:33.648Z,7.40
2018-01-04T18:53:01.200Z,7.40
2018-01-04T18:55:28.755Z,7.40
2018-01-04T18:57:56.988Z,7.40
2018-01-04T19:00:25.410Z,7.50
2018-01-04T19:02:52.966Z,7.50
2018-01-04T19:05:20.584Z,7.50
2018-01-04T19:07:48.143Z,7.50
2018-01-04T19:10:15.690Z,7.60
2018-01-04T19:12:43.497Z,7.60
2018-01-04T19:15:12.604Z,7.70
2018-01-04T19:17:40.156Z,7.60
2018-01-04T19:20:08.932Z,7.70
2018-01-04T19:22:38.303Z,7.70
2018-01-04T19:25:05.833Z,7.70
2018-01-04T19:27:35.064Z,7.70
2018-01-04T19:30:02.692Z,7.70
2018-01-04T19:32:30.235Z,7.70
2018-01-04T19:34:57.907Z,7.70
2018-01-04T19:37:25.460Z,7.70
2018-01-04T19:39:53.008Z,7.80
2018-01-04T19:42:20.933Z,7.80
2018-01-04T19:44:48.466Z,7.80
2018-01-04T19:47:16.839Z,7.80
2018-01-04T19:49:44.433Z,7.90
2018-01-04T19:52:11.988Z,8.00
2018-01-04T19:54:39.550Z,8.00
2018-01-04T19:57:07.152Z,8.10
2018-01-04T19:59:35.689Z,8.00
2018-01-04T20:02:06.729Z,8.00
2018-01-04T20:04:34.392Z,8.00
2018-01-04T20:07:02.046Z,8.00
2018-01-04T20:09:29.584Z,8.00
2018-01-04T20:11:57.593Z,8.00
2018-01-04T20:14:25.168Z,8.00
2018-01-04T20:16:53.209Z,8.20
2018-01-04T20:19:20.827Z,8.50
2018-01-04T20:21:48.413Z,8.70
2018-01-04T20:24:17.511Z,9.00
2018-01-04T20:26:45.072Z,9.20
2018-01-04T20:29:13.227Z,9.40
2018-01-04T20:31:41.549Z,9.60
2018-01-04T20:34:09.541Z,9.60
2018-01-04T20:36:38.791Z,9.70
2018-01-04T20:39:06.354Z,9.60
2018-01-04T20:41:34.991Z,9.70
2018-01-04T20:44:02.669Z,9.80
2018-01-04T20:46:31.000Z,9.80
2018-01-04T20:48:59.202Z,9.80
2018-01-04T20:51:27.543Z,10.10
2018-01-04T20:53:55.193Z,10.10
2018-01-04T20:56:22.789Z,10.00
2018-01-04T20:58:50.346Z,10.10
2018-01-04T21:01:19.038Z,10.00
2018-01-04T21:03:47.072Z,10.00
2018-01-04T21:06:14.714Z,10.00
2018-01-04T21:08:42.841Z,9.90
2018-01-04T21:11:10.479Z,9.90
2018-01-04T21:13:39.599Z,9.90
2018-01-04T21:16:07.166Z,9.90
2018-01-04T21:18:34.893Z,9.80
2018-01-04T21:21:03.380Z,9.80
2018-01-04T21:23:31.268Z,9.70
2018-01-04T21:25:59.132Z,9.70
2018-01-04T21:28:26.847Z,9.70
2018-01-04T21:30:54.619Z,9.70
2018-01-04T21:33:23.663Z,9.70
2018-01-04T21:35:51.731Z,9.70
2018-01-04T21:38:20.630Z,9.70
2018-01-04T21:40:49.441Z,9.80
2018-01-04T21:43:17.035Z,9.80
2018-01-04T21:45:45.452Z,9.90
2018-01-04T21:48:13.207Z,9.90
2018-01-04T21:50:41.034Z,9.90
2018-01-04T21:53:09.600Z,9.80
2018-01-04T21:55:37.585Z,9.80
2018-01-04T21:58:07.331Z,9.80
2018-01-04T22:00:35.537Z,9.80
2018-01-04T22:03:03.151Z,9.80
2018-01-04T22:05:30.717Z,9.90
2018-01-04T22:07:58.922Z,9.90
2018-01-04T22:10:27.763Z,9.90
2018-01-04T22:12:55.382Z,9.90
2018-01-04T22:15:25.523Z,9.90
2018-01-04T22:17:55.579Z,9.90
2018-01-04T22:20:23.377Z,9.90
2018-01-04T22:22:51.222Z,9.90
2018-01-04T22:25:20.171Z,9.80
2018-01-04T22:27:48.654Z,9.80
2018-01-04T22:30:18.966Z,10.10
2018-01-04T22:32:47.027Z,10.10
2018-01-04T22:35:14.819Z,10.10
2018-01-04T22:37:42.389Z,10.10
2018-01-04T22:40:10.330Z,10.10
2018-01-04T22:42:38.630Z,10.10
2018-01-04T22:45:06.212Z,9.90
2018-01-04T22:47:34.527Z,9.70
2018-01-04T22:50:02.140Z,9.70
2018-01-04T22:52:29.868Z,9.60
2018-01-04T22:54:58.444Z,9.50
2018-01-04T22:57:26.070Z,9.50
2018-01-04T22:59:54.508Z,9.40
2018-01-04T23:02:22.087Z,9.40
2018-01-04T23:04:49.732Z,9.40
2018-01-04T23:07:18.224Z,9.40
2018-01-04T23:09:45.786Z,9.30
2018-01-04T23:12:13.413Z,9.40
2018-01-04T23:14:41.020Z,9.30
2018-01-04T23:17:09.412Z,9.30
2018-01-04T23:19:38.166Z,9.20
2018-01-04T23:22:05.722Z,9.20
2018-01-04T23:24:33.322Z,9.20
2018-01-04T23:27:01.283Z,9.20
2018-01-04T23:29:28.974Z,9.20
2018-01-04T23:31:56.865Z,9.20
2018-01-04T23:34:24.445Z,9.10
2018-01-04T23:36:52.135Z,9.10
2018-01-04T23:39:20.595Z,9.10
2018-01-04T23:41:48.355Z,9.00
2018-01-04T23:44:16.323Z,9.00
2018-01-04T23:46:43.907Z,9.00
2018-01-04T23:49:12.357Z,8.90
2018-01-04T23:51:40.057Z,8.90
2018-01-04T23:54:08.400Z,8.80
2018-01-04T23:56:36.496Z,8.80
2018-01-04T23:59:04.133Z,8.80
